Higbee, Missouri
Current Conditions -  °F | °C
As of 9:55 AM on Thursday 27 Nov 2014 (Local Time) from KVER Reporting Station
Broken Clouds Broken Clouds  
Wind Chill: 22°   Ceiling: 1800
Heat Index: 30°   Visibility: 10mi
Dew Point: 22°   Wind: 8mph
Humidity: 72%   Direction: 250°WSW
Pressure: 30.53"   Gusts: NA
Location:  39.3°N, 92.51°W
Report Text: KVER 271555Z AUTO 25007KT 10SM BKN018 M01/M06 A3053 RMK AO2 T10111056
Loading
Personal Weather Stations






























Interactive Weather Map New forecast layout! Learn more

10-Day Weather Forecast

Advertisements
Track Severe Weather on mobile